Nearby METAR Reports

 

KMHT - Manchester, New Hampshire, USA
Distance from station: W 16mi, 26km
Updated: Sat, 21-Jul-2018 12:53pm EDT
Partly cloudy
Partly cloudy
 Wind from SSE
Wind: SSE 10 mph , 17 km/h
Temperature: 79°F , 26°C
Dew Point: 54°F , 12°C
Humidity: 42%
Barometer: 30.14 inHg , 1020.7 hPa
Clouds: Partly cloudy
Visibility: 10 miles , 16 km
Cloud details: Few Clouds 3600 ft
Partly cloudy 15000 ft
2018/07/21 16:53 KMHT 211653Z 15009KT 10SM FEW036 SCT150 26/12 A3014 RMK AO2 SLP217 T02560117
KPSM - Portsmouth/Pease, New Hampshire, USA
Distance from station: ENE 17mi, 27km
Updated: Sat, 21-Jul-2018 12:56pm EDT
Mostly cloudy
Mostly cloudy
 Wind from ESE
Wind: ESE 9 mph , 15 km/h
Temperature: 75°F , 24°C
Dew Point: 55°F , 13°C
Humidity: 50%
Barometer: 30.17 inHg , 1021.7 hPa
Clouds: Mostly cloudy
Visibility: 10 miles , 16 km
Cloud details: Few Clouds 3500 ft
Mostly cloudy 25000 ft
2018/07/21 16:56 KPSM 211656Z 11008KT 10SM FEW035 BKN250 24/13 A3017 RMK AO2A SLP218 T02370132
 
KASH - Nashua/Boire Fld, New Hampshire, USA
Distance from station: WSW 24mi, 38km
Updated: Sat, 21-Jul-2018 12:56pm EDT
Partly cloudy
Partly cloudy
 Wind from SE
Wind: SE 13 mph , 20 km/h, Gust: 17 mph , 28 km/h
Temperature: 79°F , 26°C
Dew Point: 55°F , 13°C
Humidity: 45%
Barometer: 30.16 inHg , 1021.3 hPa
Clouds: Partly cloudy
Visibility: 10 miles , 16 km
Cloud details: Few Clouds 4000 ft
Partly cloudy 13000 ft
2018/07/21 16:56 KASH 211656Z 13011G15KT 10SM FEW040 SCT130 26/13 A3016 RMK AO2 SLP221 T02560128
KDAW - Rochester, New Hampshire, USA
Distance from station: NNE 24mi, 39km
Updated: Sat, 21-Jul-2018 12:51pm EDT
Clear
Clear
 Wind from S
Wind: S 6 mph , 9 km/h
Temperature: 77°F , 25°C
Dew Point: 57°F , 14°C
Humidity: 51%
Barometer: 30.18 inHg , 1022 hPa
Clouds: Clear
Visibility: 10 miles , 16 km
2018/07/21 16:51 KDAW 211651Z AUTO 17005KT 10SM CLR 25/14 A3018 RMK AO2 SLP215 T02500139